sensor_id;sensor_type;location;lat;lon;timestamp;P1;durP1;ratioP1;P2;durP2;ratioP2
20731;SDS011;10527;52.124;5.196;2024-03-22T00:02:07;29.27;;;19.30;;
20731;SDS011;10527;52.124;5.196;2024-03-22T00:04:35;30.33;;;20.35;;
20731;SDS011;10527;52.124;5.196;2024-03-22T00:07:02;29.15;;;19.50;;
20731;SDS011;10527;52.124;5.196;2024-03-22T00:09:28;29.92;;;20.15;;
20731;SDS011;10527;52.124;5.196;2024-03-22T00:11:55;31.50;;;19.90;;
20731;SDS011;10527;52.124;5.196;2024-03-22T00:14:21;31.35;;;21.70;;
20731;SDS011;10527;52.124;5.196;2024-03-22T00:16:49;27.27;;;20.63;;
20731;SDS011;10527;52.124;5.196;2024-03-22T00:19:16;29.40;;;21.50;;
20731;SDS011;10527;52.124;5.196;2024-03-22T00:21:42;33.33;;;20.17;;
20731;SDS011;10527;52.124;5.196;2024-03-22T00:24:09;29.73;;;19.67;;
20731;SDS011;10527;52.124;5.196;2024-03-22T00:26:35;28.30;;;19.52;;
20731;SDS011;10527;52.124;5.196;2024-03-22T00:29:02;30.05;;;20.08;;
20731;SDS011;10527;52.124;5.196;2024-03-22T00:31:28;29.70;;;19.52;;
20731;SDS011;10527;52.124;5.196;2024-03-22T00:33:55;32.78;;;20.10;;
20731;SDS011;10527;52.124;5.196;2024-03-22T00:36:21;29.60;;;20.45;;
20731;SDS011;10527;52.124;5.196;2024-03-22T00:38:48;31.98;;;20.48;;
20731;SDS011;10527;52.124;5.196;2024-03-22T00:41:15;32.60;;;20.45;;
20731;SDS011;10527;52.124;5.196;2024-03-22T00:43:41;32.53;;;20.30;;
20731;SDS011;10527;52.124;5.196;2024-03-22T00:46:07;32.70;;;21.40;;
20731;SDS011;10527;52.124;5.196;2024-03-22T00:48:34;35.92;;;22.15;;
20731;SDS011;10527;52.124;5.196;2024-03-22T00:51:01;30.40;;;19.88;;
20731;SDS011;10527;52.124;5.196;2024-03-22T00:53:28;31.75;;;20.75;;
20731;SDS011;10527;52.124;5.196;2024-03-22T00:55:55;33.75;;;21.40;;
20731;SDS011;10527;52.124;5.196;2024-03-22T00:58:25;35.00;;;21.15;;
20731;SDS011;10527;52.124;5.196;2024-03-22T01:00:52;30.05;;;20.63;;
20731;SDS011;10527;52.124;5.196;2024-03-22T01:03:18;31.50;;;21.52;;
20731;SDS011;10527;52.124;5.196;2024-03-22T01:05:45;34.08;;;21.73;;
20731;SDS011;10527;52.124;5.196;2024-03-22T01:08:11;31.50;;;21.33;;
20731;SDS011;10527;52.124;5.196;2024-03-22T01:10:38;35.38;;;21.40;;
20731;SDS011;10527;52.124;5.196;2024-03-22T01:13:05;32.95;;;20.88;;
20731;SDS011;10527;52.124;5.196;2024-03-22T01:15:32;30.88;;;19.90;;
20731;SDS011;10527;52.124;5.196;2024-03-22T01:17:59;30.42;;;21.13;;
20731;SDS011;10527;52.124;5.196;2024-03-22T01:20:25;29.35;;;19.75;;
20731;SDS011;10527;52.124;5.196;2024-03-22T01:22:51;31.90;;;20.63;;
20731;SDS011;10527;52.124;5.196;2024-03-22T01:25:18;30.08;;;21.02;;
20731;SDS011;10527;52.124;5.196;2024-03-22T01:27:44;30.45;;;19.92;;
20731;SDS011;10527;52.124;5.196;2024-03-22T01:30:11;31.17;;;21.02;;
20731;SDS011;10527;52.124;5.196;2024-03-22T01:32:37;28.50;;;18.38;;
20731;SDS011;10527;52.124;5.196;2024-03-22T01:35:04;28.63;;;20.63;;
20731;SDS011;10527;52.124;5.196;2024-03-22T01:37:30;29.35;;;19.52;;
20731;SDS011;10527;52.124;5.196;2024-03-22T01:39:56;33.25;;;19.52;;
20731;SDS011;10527;52.124;5.196;2024-03-22T01:42:23;32.10;;;20.35;;
20731;SDS011;10527;52.124;5.196;2024-03-22T01:44:50;27.88;;;18.40;;
20731;SDS011;10527;52.124;5.196;2024-03-22T01:47:16;29.25;;;19.55;;
20731;SDS011;10527;52.124;5.196;2024-03-22T01:49:43;31.08;;;19.58;;
20731;SDS011;10527;52.124;5.196;2024-03-22T01:52:10;30.42;;;19.80;;
20731;SDS011;10527;52.124;5.196;2024-03-22T01:54:36;29.33;;;19.40;;
20731;SDS011;10527;52.124;5.196;2024-03-22T01:57:03;27.80;;;18.67;;
20731;SDS011;10527;52.124;5.196;2024-03-22T01:59:30;35.30;;;22.67;;
20731;SDS011;10527;52.124;5.196;2024-03-22T02:01:58;30.38;;;20.65;;
20731;SDS011;10527;52.124;5.196;2024-03-22T02:04:24;35.13;;;21.63;;
20731;SDS011;10527;52.124;5.196;2024-03-22T02:06:51;34.08;;;21.90;;
20731;SDS011;10527;52.124;5.196;2024-03-22T02:09:17;32.17;;;21.00;;
20731;SDS011;10527;52.124;5.196;2024-03-22T02:11:46;39.85;;;25.33;;
20731;SDS011;10527;52.124;5.196;2024-03-22T02:14:13;38.38;;;24.88;;
20731;SDS011;10527;52.124;5.196;2024-03-22T02:16:40;42.60;;;25.15;;
20731;SDS011;10527;52.124;5.196;2024-03-22T02:19:07;48.95;;;29.10;;
20731;SDS011;10527;52.124;5.196;2024-03-22T02:21:34;47.17;;;29.77;;
20731;SDS011;10527;52.124;5.196;2024-03-22T02:24:00;46.45;;;29.23;;
20731;SDS011;10527;52.124;5.196;2024-03-22T02:26:27;46.00;;;29.60;;
20731;SDS011;10527;52.124;5.196;2024-03-22T02:28:53;48.28;;;30.55;;
20731;SDS011;10527;52.124;5.196;2024-03-22T02:31:20;46.63;;;28.90;;
20731;SDS011;10527;52.124;5.196;2024-03-22T02:33:46;54.67;;;31.83;;
20731;SDS011;10527;52.124;5.196;2024-03-22T02:36:13;48.78;;;29.85;;
20731;SDS011;10527;52.124;5.196;2024-03-22T02:38:39;47.72;;;30.75;;
20731;SDS011;10527;52.124;5.196;2024-03-22T02:41:06;56.40;;;31.95;;
20731;SDS011;10527;52.124;5.196;2024-03-22T02:43:32;47.70;;;29.38;;
20731;SDS011;10527;52.124;5.196;2024-03-22T02:45:58;49.55;;;29.00;;
20731;SDS011;10527;52.124;5.196;2024-03-22T02:48:25;50.65;;;29.92;;
20731;SDS011;10527;52.124;5.196;2024-03-22T02:50:54;52.67;;;29.35;;
20731;SDS011;10527;52.124;5.196;2024-03-22T02:53:21;44.85;;;27.25;;
20731;SDS011;10527;52.124;5.196;2024-03-22T02:55:48;45.30;;;26.83;;
20731;SDS011;10527;52.124;5.196;2024-03-22T02:58:14;41.67;;;25.25;;
20731;SDS011;10527;52.124;5.196;2024-03-22T03:00:42;47.33;;;28.08;;
20731;SDS011;10527;52.124;5.196;2024-03-22T03:03:09;43.33;;;24.90;;
20731;SDS011;10527;52.124;5.196;2024-03-22T03:05:35;39.22;;;23.10;;
20731;SDS011;10527;52.124;5.196;2024-03-22T03:08:02;41.57;;;23.67;;
20731;SDS011;10527;52.124;5.196;2024-03-22T03:10:29;37.13;;;22.92;;
20731;SDS011;10527;52.124;5.196;2024-03-22T03:12:55;39.43;;;22.47;;
20731;SDS011;10527;52.124;5.196;2024-03-22T03:15:22;35.97;;;22.98;;
20731;SDS011;10527;52.124;5.196;2024-03-22T03:17:48;33.58;;;21.67;;
20731;SDS011;10527;52.124;5.196;2024-03-22T03:20:16;39.00;;;23.17;;
20731;SDS011;10527;52.124;5.196;2024-03-22T03:22:43;37.90;;;22.43;;
20731;SDS011;10527;52.124;5.196;2024-03-22T03:25:09;37.97;;;23.38;;
20731;SDS011;10527;52.124;5.196;2024-03-22T03:27:37;37.25;;;20.88;;
20731;SDS011;10527;52.124;5.196;2024-03-22T03:30:03;34.63;;;20.55;;
20731;SDS011;10527;52.124;5.196;2024-03-22T03:32:30;34.30;;;23.02;;
20731;SDS011;10527;52.124;5.196;2024-03-22T03:34:57;28.88;;;18.35;;
20731;SDS011;10527;52.124;5.196;2024-03-22T03:37:24;32.28;;;18.48;;
20731;SDS011;10527;52.124;5.196;2024-03-22T03:39:50;31.23;;;18.27;;
20731;SDS011;10527;52.124;5.196;2024-03-22T03:42:16;31.20;;;18.75;;
20731;SDS011;10527;52.124;5.196;2024-03-22T03:44:43;32.15;;;19.52;;
20731;SDS011;10527;52.124;5.196;2024-03-22T03:47:09;29.60;;;19.77;;
20731;SDS011;10527;52.124;5.196;2024-03-22T03:49:36;31.05;;;17.58;;
20731;SDS011;10527;52.124;5.196;2024-03-22T03:52:02;29.13;;;19.30;;
20731;SDS011;10527;52.124;5.196;2024-03-22T03:54:28;35.67;;;20.03;;
20731;SDS011;10527;52.124;5.196;2024-03-22T03:56:55;31.37;;;19.13;;
20731;SDS011;10527;52.124;5.196;2024-03-22T03:59:22;29.00;;;18.25;;
20731;SDS011;10527;52.124;5.196;2024-03-22T04:01:48;33.90;;;20.37;;
20731;SDS011;10527;52.124;5.196;2024-03-22T04:04:15;31.67;;;19.87;;
20731;SDS011;10527;52.124;5.196;2024-03-22T04:06:41;36.93;;;21.40;;
20731;SDS011;10527;52.124;5.196;2024-03-22T04:09:09;35.00;;;19.80;;
20731;SDS011;10527;52.124;5.196;2024-03-22T04:11:36;31.25;;;19.30;;
20731;SDS011;10527;52.124;5.196;2024-03-22T04:14:03;32.08;;;18.58;;
20731;SDS011;10527;52.124;5.196;2024-03-22T04:16:30;35.30;;;20.63;;
20731;SDS011;10527;52.124;5.196;2024-03-22T04:18:57;34.30;;;20.30;;
20731;SDS011;10527;52.124;5.196;2024-03-22T04:21:23;33.07;;;19.40;;
20731;SDS011;10527;52.124;5.196;2024-03-22T04:23:50;32.77;;;20.13;;
20731;SDS011;10527;52.124;5.196;2024-03-22T04:26:16;32.65;;;19.20;;
20731;SDS011;10527;52.124;5.196;2024-03-22T04:28:43;32.03;;;20.17;;
20731;SDS011;10527;52.124;5.196;2024-03-22T04:31:09;36.15;;;25.38;;
20731;SDS011;10527;52.124;5.196;2024-03-22T04:33:36;32.92;;;22.63;;
20731;SDS011;10527;52.124;5.196;2024-03-22T04:36:03;34.87;;;23.67;;
20731;SDS011;10527;52.124;5.196;2024-03-22T04:38:29;35.40;;;23.53;;
20731;SDS011;10527;52.124;5.196;2024-03-22T04:40:58;32.08;;;19.35;;
20731;SDS011;10527;52.124;5.196;2024-03-22T04:43:25;30.03;;;19.90;;
20731;SDS011;10527;52.124;5.196;2024-03-22T04:45:52;29.20;;;18.27;;
20731;SDS011;10527;52.124;5.196;2024-03-22T04:48:19;31.05;;;19.98;;
20731;SDS011;10527;52.124;5.196;2024-03-22T04:50:47;29.87;;;19.37;;
20731;SDS011;10527;52.124;5.196;2024-03-22T04:53:18;29.53;;;19.53;;
20731;SDS011;10527;52.124;5.196;2024-03-22T04:55:49;32.92;;;20.40;;
20731;SDS011;10527;52.124;5.196;2024-03-22T04:58:19;28.30;;;18.10;;
20731;SDS011;10527;52.124;5.196;2024-03-22T05:00:46;31.40;;;18.57;;
20731;SDS011;10527;52.124;5.196;2024-03-22T05:03:14;31.73;;;19.40;;
20731;SDS011;10527;52.124;5.196;2024-03-22T05:05:41;30.27;;;20.30;;
20731;SDS011;10527;52.124;5.196;2024-03-22T05:08:08;32.83;;;20.77;;
20731;SDS011;10527;52.124;5.196;2024-03-22T05:10:35;33.67;;;22.57;;
20731;SDS011;10527;52.124;5.196;2024-03-22T05:13:01;38.00;;;23.77;;
20731;SDS011;10527;52.124;5.196;2024-03-22T05:15:28;38.67;;;21.93;;
20731;SDS011;10527;52.124;5.196;2024-03-22T05:17:55;33.40;;;21.97;;
20731;SDS011;10527;52.124;5.196;2024-03-22T05:20:22;36.87;;;23.07;;
20731;SDS011;10527;52.124;5.196;2024-03-22T05:22:49;36.93;;;23.47;;
20731;SDS011;10527;52.124;5.196;2024-03-22T05:25:15;39.90;;;25.43;;
20731;SDS011;10527;52.124;5.196;2024-03-22T05:27:42;39.73;;;24.73;;
20731;SDS011;10527;52.124;5.196;2024-03-22T05:30:09;40.20;;;26.00;;
20731;SDS011;10527;52.124;5.196;2024-03-22T05:32:36;42.93;;;25.97;;
20731;SDS011;10527;52.124;5.196;2024-03-22T05:35:03;38.23;;;24.13;;
20731;SDS011;10527;52.124;5.196;2024-03-22T05:37:30;40.97;;;24.30;;
20731;SDS011;10527;52.124;5.196;2024-03-22T05:39:57;39.83;;;25.48;;
20731;SDS011;10527;52.124;5.196;2024-03-22T05:42:24;34.43;;;23.23;;
20731;SDS011;10527;52.124;5.196;2024-03-22T05:44:51;40.33;;;25.23;;
20731;SDS011;10527;52.124;5.196;2024-03-22T05:47:18;37.85;;;22.92;;
20731;SDS011;10527;52.124;5.196;2024-03-22T05:49:44;32.77;;;21.03;;
20731;SDS011;10527;52.124;5.196;2024-03-22T05:52:11;31.93;;;21.97;;
20731;SDS011;10527;52.124;5.196;2024-03-22T05:54:38;33.83;;;21.40;;
20731;SDS011;10527;52.124;5.196;2024-03-22T05:57:04;29.70;;;20.07;;
20731;SDS011;10527;52.124;5.196;2024-03-22T05:59:31;31.87;;;20.93;;
20731;SDS011;10527;52.124;5.196;2024-03-22T06:01:57;34.97;;;22.00;;
20731;SDS011;10527;52.124;5.196;2024-03-22T06:04:24;38.50;;;22.73;;
20731;SDS011;10527;52.124;5.196;2024-03-22T06:06:51;31.20;;;21.33;;
20731;SDS011;10527;52.124;5.196;2024-03-22T06:09:17;37.23;;;23.30;;
20731;SDS011;10527;52.124;5.196;2024-03-22T06:11:59;34.00;;;21.93;;
20731;SDS011;10527;52.124;5.196;2024-03-22T06:14:27;33.70;;;21.92;;
20731;SDS011;10527;52.124;5.196;2024-03-22T06:16:54;34.33;;;24.20;;
20731;SDS011;10527;52.124;5.196;2024-03-22T06:19:21;36.40;;;23.57;;
20731;SDS011;10527;52.124;5.196;2024-03-22T06:21:47;38.37;;;23.37;;
20731;SDS011;10527;52.124;5.196;2024-03-22T06:24:13;35.40;;;22.80;;
20731;SDS011;10527;52.124;5.196;2024-03-22T06:26:40;38.70;;;23.20;;
20731;SDS011;10527;52.124;5.196;2024-03-22T06:29:07;33.73;;;21.90;;
20731;SDS011;10527;52.124;5.196;2024-03-22T06:31:33;34.20;;;22.27;;
20731;SDS011;10527;52.124;5.196;2024-03-22T06:34:00;34.13;;;22.63;;
20731;SDS011;10527;52.124;5.196;2024-03-22T06:36:28;34.77;;;21.53;;
20731;SDS011;10527;52.124;5.196;2024-03-22T06:38:57;33.33;;;21.33;;
20731;SDS011;10527;52.124;5.196;2024-03-22T06:41:24;35.53;;;20.97;;
20731;SDS011;10527;52.124;5.196;2024-03-22T06:43:51;30.43;;;19.37;;
20731;SDS011;10527;52.124;5.196;2024-03-22T06:46:17;32.30;;;19.23;;
20731;SDS011;10527;52.124;5.196;2024-03-22T06:48:44;29.53;;;17.83;;
20731;SDS011;10527;52.124;5.196;2024-03-22T06:51:11;29.50;;;18.80;;
20731;SDS011;10527;52.124;5.196;2024-03-22T06:53:38;27.00;;;16.13;;
20731;SDS011;10527;52.124;5.196;2024-03-22T06:56:04;27.40;;;16.73;;
20731;SDS011;10527;52.124;5.196;2024-03-22T06:58:34;26.13;;;17.37;;
20731;SDS011;10527;52.124;5.196;2024-03-22T07:01:04;26.90;;;16.30;;
20731;SDS011;10527;52.124;5.196;2024-03-22T07:03:31;26.37;;;16.47;;
20731;SDS011;10527;52.124;5.196;2024-03-22T07:05:58;26.30;;;16.90;;
20731;SDS011;10527;52.124;5.196;2024-03-22T07:08:26;24.40;;;16.37;;
20731;SDS011;10527;52.124;5.196;2024-03-22T07:10:53;29.13;;;16.60;;
20731;SDS011;10527;52.124;5.196;2024-03-22T07:13:21;31.97;;;18.47;;
20731;SDS011;10527;52.124;5.196;2024-03-22T07:15:47;28.93;;;17.17;;
20731;SDS011;10527;52.124;5.196;2024-03-22T07:18:15;24.50;;;17.33;;
20731;SDS011;10527;52.124;5.196;2024-03-22T07:20:41;28.27;;;17.00;;
20731;SDS011;10527;52.124;5.196;2024-03-22T07:23:10;25.97;;;17.17;;
20731;SDS011;10527;52.124;5.196;2024-03-22T07:25:37;27.02;;;16.48;;
20731;SDS011;10527;52.124;5.196;2024-03-22T07:28:04;25.83;;;16.90;;
20731;SDS011;10527;52.124;5.196;2024-03-22T07:30:30;26.50;;;15.85;;
20731;SDS011;10527;52.124;5.196;2024-03-22T07:32:57;22.53;;;15.37;;
20731;SDS011;10527;52.124;5.196;2024-03-22T07:35:23;24.60;;;15.82;;
20731;SDS011;10527;52.124;5.196;2024-03-22T07:37:50;23.80;;;14.57;;
20731;SDS011;10527;52.124;5.196;2024-03-22T07:40:16;24.75;;;15.65;;
20731;SDS011;10527;52.124;5.196;2024-03-22T07:42:43;22.40;;;13.73;;
20731;SDS011;10527;52.124;5.196;2024-03-22T07:45:09;25.53;;;14.40;;
20731;SDS011;10527;52.124;5.196;2024-03-22T07:47:36;26.33;;;15.43;;
20731;SDS011;10527;52.124;5.196;2024-03-22T07:50:02;27.40;;;15.32;;
20731;SDS011;10527;52.124;5.196;2024-03-22T07:52:29;26.08;;;13.73;;
20731;SDS011;10527;52.124;5.196;2024-03-22T07:54:56;27.73;;;14.75;;
20731;SDS011;10527;52.124;5.196;2024-03-22T07:57:22;24.45;;;13.73;;
20731;SDS011;10527;52.124;5.196;2024-03-22T07:59:49;24.90;;;13.80;;
20731;SDS011;10527;52.124;5.196;2024-03-22T08:02:16;26.80;;;13.67;;
20731;SDS011;10527;52.124;5.196;2024-03-22T08:04:42;20.73;;;12.85;;
20731;SDS011;10527;52.124;5.196;2024-03-22T08:07:09;26.50;;;13.43;;
20731;SDS011;10527;52.124;5.196;2024-03-22T08:09:35;23.58;;;11.02;;
20731;SDS011;10527;52.124;5.196;2024-03-22T08:12:02;20.60;;;11.85;;
20731;SDS011;10527;52.124;5.196;2024-03-22T08:14:28;22.52;;;11.50;;
20731;SDS011;10527;52.124;5.196;2024-03-22T08:16:54;16.43;;;10.70;;
20731;SDS011;10527;52.124;5.196;2024-03-22T08:19:21;19.70;;;10.30;;
20731;SDS011;10527;52.124;5.196;2024-03-22T08:21:47;18.10;;;8.80;;
20731;SDS011;10527;52.124;5.196;2024-03-22T08:24:14;19.90;;;9.37;;
20731;SDS011;10527;52.124;5.196;2024-03-22T08:26:41;19.53;;;8.00;;
20731;SDS011;10527;52.124;5.196;2024-03-22T08:29:10;18.23;;;8.23;;
20731;SDS011;10527;52.124;5.196;2024-03-22T08:31:37;18.63;;;8.82;;
20731;SDS011;10527;52.124;5.196;2024-03-22T08:34:03;18.53;;;9.00;;
20731;SDS011;10527;52.124;5.196;2024-03-22T08:36:30;15.80;;;8.00;;
20731;SDS011;10527;52.124;5.196;2024-03-22T08:38:58;19.33;;;10.13;;
20731;SDS011;10527;52.124;5.196;2024-03-22T08:41:25;15.03;;;7.87;;
20731;SDS011;10527;52.124;5.196;2024-03-22T08:43:51;18.10;;;8.90;;
20731;SDS011;10527;52.124;5.196;2024-03-22T08:46:18;15.17;;;8.00;;
20731;SDS011;10527;52.124;5.196;2024-03-22T08:48:46;20.03;;;9.00;;
20731;SDS011;10527;52.124;5.196;2024-03-22T08:51:13;14.67;;;8.40;;
20731;SDS011;10527;52.124;5.196;2024-03-22T08:53:39;15.05;;;8.13;;
20731;SDS011;10527;52.124;5.196;2024-03-22T08:56:06;14.97;;;8.33;;
20731;SDS011;10527;52.124;5.196;2024-03-22T08:58:34;18.37;;;9.10;;
20731;SDS011;10527;52.124;5.196;2024-03-22T09:01:01;18.40;;;9.10;;
20731;SDS011;10527;52.124;5.196;2024-03-22T09:03:27;16.33;;;8.53;;
20731;SDS011;10527;52.124;5.196;2024-03-22T09:05:55;16.50;;;8.83;;
20731;SDS011;10527;52.124;5.196;2024-03-22T09:08:22;19.20;;;9.77;;
20731;SDS011;10527;52.124;5.196;2024-03-22T09:10:48;18.13;;;8.50;;
20731;SDS011;10527;52.124;5.196;2024-03-22T09:13:16;15.13;;;9.30;;
20731;SDS011;10527;52.124;5.196;2024-03-22T09:15:42;16.70;;;9.03;;
20731;SDS011;10527;52.124;5.196;2024-03-22T09:18:08;12.13;;;7.50;;
20731;SDS011;10527;52.124;5.196;2024-03-22T09:20:35;14.27;;;7.87;;
20731;SDS011;10527;52.124;5.196;2024-03-22T09:23:01;16.77;;;8.73;;
20731;SDS011;10527;52.124;5.196;2024-03-22T09:25:29;16.33;;;8.43;;
20731;SDS011;10527;52.124;5.196;2024-03-22T09:27:55;17.90;;;8.30;;
20731;SDS011;10527;52.124;5.196;2024-03-22T09:30:22;17.30;;;8.37;;
20731;SDS011;10527;52.124;5.196;2024-03-22T09:32:48;17.77;;;8.50;;
20731;SDS011;10527;52.124;5.196;2024-03-22T09:35:14;15.80;;;8.60;;
20731;SDS011;10527;52.124;5.196;2024-03-22T09:37:43;11.70;;;7.60;;
20731;SDS011;10527;52.124;5.196;2024-03-22T09:40:09;15.63;;;7.60;;
20731;SDS011;10527;52.124;5.196;2024-03-22T09:42:37;14.00;;;7.60;;
20731;SDS011;10527;52.124;5.196;2024-03-22T09:45:07;12.80;;;8.07;;
20731;SDS011;10527;52.124;5.196;2024-03-22T09:47:36;11.47;;;7.03;;
20731;SDS011;10527;52.124;5.196;2024-03-22T09:50:04;10.33;;;7.03;;
20731;SDS011;10527;52.124;5.196;2024-03-22T09:52:33;13.37;;;7.27;;
20731;SDS011;10527;52.124;5.196;2024-03-22T09:55:00;10.67;;;7.03;;
20731;SDS011;10527;52.124;5.196;2024-03-22T09:57:29;11.97;;;7.63;;
20731;SDS011;10527;52.124;5.196;2024-03-22T09:59:57;12.67;;;7.33;;
20731;SDS011;10527;52.124;5.196;2024-03-22T10:02:24;10.13;;;6.90;;
20731;SDS011;10527;52.124;5.196;2024-03-22T10:04:51;12.33;;;8.80;;
20731;SDS011;10527;52.124;5.196;2024-03-22T10:07:18;9.30;;;6.53;;
20731;SDS011;10527;52.124;5.196;2024-03-22T10:09:44;9.77;;;6.97;;
20731;SDS011;10527;52.124;5.196;2024-03-22T10:12:11;12.33;;;7.40;;
20731;SDS011;10527;52.124;5.196;2024-03-22T10:14:38;11.63;;;7.03;;
20731;SDS011;10527;52.124;5.196;2024-03-22T10:17:08;14.03;;;7.00;;
20731;SDS011;10527;52.124;5.196;2024-03-22T10:19:34;22.70;;;11.70;;
20731;SDS011;10527;52.124;5.196;2024-03-22T10:22:02;14.13;;;10.37;;
20731;SDS011;10527;52.124;5.196;2024-03-22T10:24:29;15.63;;;8.87;;
20731;SDS011;10527;52.124;5.196;2024-03-22T10:26:57;13.40;;;8.30;;
20731;SDS011;10527;52.124;5.196;2024-03-22T10:29:24;13.73;;;8.07;;
20731;SDS011;10527;52.124;5.196;2024-03-22T10:31:54;16.57;;;8.73;;
20731;SDS011;10527;52.124;5.196;2024-03-22T10:34:21;12.13;;;9.37;;
20731;SDS011;10527;52.124;5.196;2024-03-22T10:36:49;14.00;;;10.73;;
20731;SDS011;10527;52.124;5.196;2024-03-22T10:39:19;15.83;;;10.80;;
20731;SDS011;10527;52.124;5.196;2024-03-22T10:41:46;16.42;;;13.05;;
20731;SDS011;10527;52.124;5.196;2024-03-22T10:44:15;19.07;;;13.17;;
20731;SDS011;10527;52.124;5.196;2024-03-22T10:46:43;13.60;;;10.43;;
20731;SDS011;10527;52.124;5.196;2024-03-22T10:49:29;12.40;;;8.87;;
20731;SDS011;10527;52.124;5.196;2024-03-22T10:52:01;13.00;;;8.43;;
20731;SDS011;10527;52.124;5.196;2024-03-22T10:54:31;12.83;;;9.10;;
20731;SDS011;10527;52.124;5.196;2024-03-22T10:57:01;12.83;;;7.77;;
20731;SDS011;10527;52.124;5.196;2024-03-22T10:59:33;7.97;;;6.73;;
20731;SDS011;10527;52.124;5.196;2024-03-22T11:02:03;10.17;;;6.93;;
20731;SDS011;10527;52.124;5.196;2024-03-22T11:04:32;14.57;;;8.03;;
20731;SDS011;10527;52.124;5.196;2024-03-22T11:06:59;9.47;;;6.90;;
20731;SDS011;10527;52.124;5.196;2024-03-22T11:09:26;11.23;;;7.07;;
20731;SDS011;10527;52.124;5.196;2024-03-22T11:11:53;10.67;;;6.70;;
20731;SDS011;10527;52.124;5.196;2024-03-22T11:14:20;10.53;;;6.27;;
20731;SDS011;10527;52.124;5.196;2024-03-22T11:16:48;8.60;;;5.40;;
20731;SDS011;10527;52.124;5.196;2024-03-22T11:19:16;8.27;;;5.87;;
20731;SDS011;10527;52.124;5.196;2024-03-22T11:21:42;10.38;;;5.28;;
20731;SDS011;10527;52.124;5.196;2024-03-22T11:24:09;7.33;;;4.70;;
20731;SDS011;10527;52.124;5.196;2024-03-22T11:26:36;7.97;;;5.50;;
20731;SDS011;10527;52.124;5.196;2024-03-22T11:29:03;6.47;;;4.63;;
20731;SDS011;10527;52.124;5.196;2024-03-22T11:31:29;6.63;;;5.17;;
20731;SDS011;10527;52.124;5.196;2024-03-22T11:33:56;5.80;;;4.28;;
20731;SDS011;10527;52.124;5.196;2024-03-22T11:36:23;11.02;;;4.82;;
20731;SDS011;10527;52.124;5.196;2024-03-22T11:38:49;7.28;;;4.70;;
20731;SDS011;10527;52.124;5.196;2024-03-22T11:41:28;6.43;;;4.05;;
20731;SDS011;10527;52.124;5.196;2024-03-22T11:43:56;6.22;;;4.43;;
20731;SDS011;10527;52.124;5.196;2024-03-22T11:46:24;6.07;;;4.50;;
20731;SDS011;10527;52.124;5.196;2024-03-22T11:48:55;8.05;;;4.10;;
20731;SDS011;10527;52.124;5.196;2024-03-22T11:51:22;4.95;;;3.78;;
20731;SDS011;10527;52.124;5.196;2024-03-22T11:53:52;5.32;;;3.80;;
20731;SDS011;10527;52.124;5.196;2024-03-22T11:56:21;5.03;;;3.88;;
20731;SDS011;10527;52.124;5.196;2024-03-22T11:58:57;4.97;;;4.37;;
20731;SDS011;10527;52.124;5.196;2024-03-22T12:01:24;6.25;;;4.25;;
20731;SDS011;10527;52.124;5.196;2024-03-22T12:03:51;5.75;;;4.25;;
20731;SDS011;10527;52.124;5.196;2024-03-22T12:06:18;6.93;;;4.27;;
20731;SDS011;10527;52.124;5.196;2024-03-22T12:08:46;6.07;;;4.67;;
20731;SDS011;10527;52.124;5.196;2024-03-22T12:11:14;6.90;;;5.20;;
20731;SDS011;10527;52.124;5.196;2024-03-22T12:13:40;8.87;;;6.30;;
20731;SDS011;10527;52.124;5.196;2024-03-22T12:16:07;7.03;;;5.50;;
20731;SDS011;10527;52.124;5.196;2024-03-22T12:18:33;6.55;;;5.65;;
20731;SDS011;10527;52.124;5.196;2024-03-22T12:21:00;7.60;;;5.80;;
20731;SDS011;10527;52.124;5.196;2024-03-22T12:23:27;8.30;;;6.10;;
20731;SDS011;10527;52.124;5.196;2024-03-22T12:25:53;9.30;;;6.10;;
20731;SDS011;10527;52.124;5.196;2024-03-22T12:28:21;9.53;;;6.87;;
20731;SDS011;10527;52.124;5.196;2024-03-22T12:30:48;11.67;;;6.77;;
20731;SDS011;10527;52.124;5.196;2024-03-22T12:33:15;10.10;;;7.00;;
20731;SDS011;10527;52.124;5.196;2024-03-22T12:35:42;9.90;;;6.67;;
20731;SDS011;10527;52.124;5.196;2024-03-22T12:38:08;10.50;;;6.90;;
20731;SDS011;10527;52.124;5.196;2024-03-22T12:40:37;10.60;;;7.30;;
20731;SDS011;10527;52.124;5.196;2024-03-22T12:43:04;12.87;;;7.47;;
20731;SDS011;10527;52.124;5.196;2024-03-22T12:45:31;12.60;;;7.50;;
20731;SDS011;10527;52.124;5.196;2024-03-22T12:48:00;13.27;;;7.73;;
20731;SDS011;10527;52.124;5.196;2024-03-22T12:50:26;14.63;;;8.07;;
20731;SDS011;10527;52.124;5.196;2024-03-22T12:52:53;10.63;;;6.87;;
20731;SDS011;10527;52.124;5.196;2024-03-22T12:55:20;13.20;;;7.27;;
20731;SDS011;10527;52.124;5.196;2024-03-22T12:57:46;11.13;;;7.47;;
20731;SDS011;10527;52.124;5.196;2024-03-22T13:00:13;14.63;;;8.00;;
20731;SDS011;10527;52.124;5.196;2024-03-22T13:02:46;10.27;;;7.20;;
20731;SDS011;10527;52.124;5.196;2024-03-22T13:05:13;14.53;;;6.93;;
20731;SDS011;10527;52.124;5.196;2024-03-22T13:07:40;13.43;;;6.50;;
20731;SDS011;10527;52.124;5.196;2024-03-22T13:10:07;12.90;;;7.10;;
20731;SDS011;10527;52.124;5.196;2024-03-22T13:12:34;13.85;;;6.53;;
20731;SDS011;10527;52.124;5.196;2024-03-22T13:15:01;12.23;;;6.93;;
20731;SDS011;10527;52.124;5.196;2024-03-22T13:17:28;14.53;;;6.73;;
20731;SDS011;10527;52.124;5.196;2024-03-22T13:19:54;10.67;;;6.33;;
20731;SDS011;10527;52.124;5.196;2024-03-22T13:22:20;11.97;;;6.37;;
20731;SDS011;10527;52.124;5.196;2024-03-22T13:24:47;9.27;;;6.00;;
20731;SDS011;10527;52.124;5.196;2024-03-22T13:27:15;11.13;;;6.20;;
20731;SDS011;10527;52.124;5.196;2024-03-22T13:29:42;11.07;;;5.57;;
20731;SDS011;10527;52.124;5.196;2024-03-22T13:32:08;8.37;;;6.40;;
20731;SDS011;10527;52.124;5.196;2024-03-22T13:34:38;8.17;;;5.37;;
20731;SDS011;10527;52.124;5.196;2024-03-22T13:37:05;10.37;;;6.13;;
20731;SDS011;10527;52.124;5.196;2024-03-22T13:39:34;11.82;;;6.05;;
20731;SDS011;10527;52.124;5.196;2024-03-22T13:42:01;11.03;;;5.53;;
20731;SDS011;10527;52.124;5.196;2024-03-22T13:44:27;10.30;;;6.50;;
20731;SDS011;10527;52.124;5.196;2024-03-22T13:46:54;10.70;;;6.30;;
20731;SDS011;10527;52.124;5.196;2024-03-22T13:49:20;13.07;;;6.53;;
20731;SDS011;10527;52.124;5.196;2024-03-22T13:51:47;12.30;;;6.30;;
20731;SDS011;10527;52.124;5.196;2024-03-22T13:54:14;12.95;;;6.90;;
20731;SDS011;10527;52.124;5.196;2024-03-22T13:56:41;12.65;;;7.47;;
20731;SDS011;10527;52.124;5.196;2024-03-22T13:59:07;11.17;;;7.27;;
20731;SDS011;10527;52.124;5.196;2024-03-22T14:01:37;12.15;;;6.75;;
20731;SDS011;10527;52.124;5.196;2024-03-22T14:04:06;14.48;;;7.75;;
20731;SDS011;10527;52.124;5.196;2024-03-22T14:06:33;18.30;;;7.43;;
20731;SDS011;10527;52.124;5.196;2024-03-22T14:08:59;13.17;;;7.00;;
20731;SDS011;10527;52.124;5.196;2024-03-22T14:11:30;11.60;;;7.13;;
20731;SDS011;10527;52.124;5.196;2024-03-22T14:13:59;12.38;;;6.15;;
20731;SDS011;10527;52.124;5.196;2024-03-22T14:16:26;13.17;;;7.67;;
20731;SDS011;10527;52.124;5.196;2024-03-22T14:18:52;16.52;;;7.00;;
20731;SDS011;10527;52.124;5.196;2024-03-22T14:21:19;17.05;;;7.50;;
20731;SDS011;10527;52.124;5.196;2024-03-22T14:23:46;11.40;;;6.90;;
20731;SDS011;10527;52.124;5.196;2024-03-22T14:26:13;13.73;;;6.82;;
20731;SDS011;10527;52.124;5.196;2024-03-22T14:28:40;11.40;;;6.55;;